Time,TemperatureF,DewpointF,PressureIn,WindDirection,WindDirectionDegrees,WindSpeedMPH,WindSpeedGustMPH,Humidity,HourlyPrecipIn,Conditions,Clouds,dailyrainin,SoftwareType,DateUTC
2013-02-18 00:00:00,17.7,3.0,29.72,WNW,292,21.0,21.0,52,0.00,,,0.00,Wunderground v.1.15,2013-02-18 05:00:00,
2013-02-18 00:05:00,17.6,3.3,29.72,NW,310,20.0,21.0,53,0.00,,,0.00,Wunderground v.1.15,2013-02-18 05:05:00,
2013-02-18 00:10:00,17.6,2.9,29.72,NW,308,19.0,19.0,52,0.00,,,0.00,Wunderground v.1.15,2013-02-18 05:10:00,
2013-02-18 00:15:00,17.5,3.7,29.72,NW,322,20.0,31.0,54,0.00,,,0.00,Wunderground v.1.15,2013-02-18 05:15:00,
2013-02-18 00:20:00,17.5,3.3,29.73,WNW,295,21.0,21.0,53,0.00,,,0.00,Wunderground v.1.15,2013-02-18 05:20:00,
2013-02-18 00:25:00,17.4,2.8,29.73,NW,310,22.0,25.0,52,0.00,,,0.00,Wunderground v.1.15,2013-02-18 05:25:00,
2013-02-18 00:35:00,17.3,3.1,29.73,NW,307,20.0,28.0,53,0.00,,,0.00,Wunderground v.1.15,2013-02-18 05:35:00,
2013-02-18 00:40:00,17.2,3.0,29.73,NW,326,20.0,29.0,53,0.00,,,0.00,Wunderground v.1.15,2013-02-18 05:40:00,
2013-02-18 00:45:00,17.1,2.9,29.73,NW,314,20.0,29.0,53,0.00,,,0.00,Wunderground v.1.15,2013-02-18 05:45:00,
2013-02-18 00:50:00,17.1,3.3,29.74,WNW,301,20.0,20.0,54,0.00,,,0.00,Wunderground v.1.15,2013-02-18 05:50:00,
2013-02-18 00:55:00,17.1,3.3,29.74,NW,312,22.0,25.0,54,0.00,,,0.00,Wunderground v.1.15,2013-02-18 05:55:00,
2013-02-18 01:05:00,17.0,3.6,29.74,NNW,343,23.0,26.0,55,0.00,,,0.00,Wunderground v.1.15,2013-02-18 06:05:00,
2013-02-18 01:10:00,17.0,4.0,29.74,NW,305,22.0,23.0,56,0.00,,,0.00,Wunderground v.1.15,2013-02-18 06:10:00,
2013-02-18 01:15:00,17.1,3.7,29.75,NW,310,20.0,23.0,55,0.00,,,0.00,Wunderground v.1.15,2013-02-18 06:15:00,
2013-02-18 01:20:00,17.1,3.7,29.75,NW,323,20.0,20.0,55,0.00,,,0.00,Wunderground v.1.15,2013-02-18 06:20:00,
2013-02-18 01:25:00,17.1,3.7,29.75,NNW,328,20.0,20.0,55,0.00,,,0.00,Wunderground v.1.15,2013-02-18 06:25:00,
2013-02-18 01:30:00,17.1,3.3,29.75,NNW,332,21.0,26.0,54,0.00,,,0.00,Wunderground v.1.15,2013-02-18 06:30:00,
2013-02-18 01:35:00,17.1,3.3,29.75,NW,325,21.0,26.0,54,0.00,,,0.00,Wunderground v.1.15,2013-02-18 06:35:00,
2013-02-18 01:40:00,17.2,3.4,29.76,NW,309,21.0,40.0,54,0.00,,,0.00,Wunderground v.1.15,2013-02-18 06:40:00,
2013-02-18 01:50:00,17.1,3.7,29.76,NW,305,22.0,22.0,55,0.00,,,0.00,Wunderground v.1.15,2013-02-18 06:50:00,
2013-02-18 01:55:00,17.1,3.3,29.76,WNW,299,20.0,22.0,54,0.00,,,0.00,Wunderground v.1.15,2013-02-18 06:55:00,
2013-02-18 02:05:00,17.1,3.3,29.76,NW,322,21.0,21.0,54,0.00,,,0.00,Wunderground v.1.15,2013-02-18 07:05:00,
2013-02-18 02:15:00,17.1,3.3,29.77,NE,39,20.0,21.0,54,0.00,,,0.00,Wunderground v.1.15,2013-02-18 07:15:00,
2013-02-18 02:20:00,17.1,3.3,29.77,NE,45,18.0,18.0,54,0.00,,,0.00,Wunderground v.1.15,2013-02-18 07:20:00,
2013-02-18 02:25:00,17.1,2.9,29.76,NNE,26,19.0,19.0,53,0.00,,,0.00,Wunderground v.1.15,2013-02-18 07:25:00,
2013-02-18 02:30:00,17.1,3.3,29.77,NNE,22,19.0,19.0,54,0.00,,,0.00,Wunderground v.1.15,2013-02-18 07:30:00,
2013-02-18 02:35:00,17.1,3.3,29.78,ENE,57,18.0,22.0,54,0.00,,,0.00,Wunderground v.1.15,2013-02-18 07:35:00,
2013-02-18 02:40:00,17.2,3.0,29.78,North,7,17.0,17.0,53,0.00,,,0.00,Wunderground v.1.15,2013-02-18 07:40:00,
2013-02-18 02:45:00,17.0,3.6,29.77,NNE,29,17.0,17.0,55,0.00,,,0.00,Wunderground v.1.15,2013-02-18 07:45:00,
2013-02-18 02:50:00,17.0,5.1,29.78,East,87,19.0,23.0,59,0.00,,,0.00,Wunderground v.1.15,2013-02-18 07:50:00,
2013-02-18 02:55:00,17.0,4.0,29.78,NNE,27,20.0,32.0,56,0.00,,,0.00,Wunderground v.1.15,2013-02-18 07:55:00,
2013-02-18 03:00:00,17.1,3.3,29.77,NNE,16,20.0,21.0,54,0.00,,,0.00,Wunderground v.1.15,2013-02-18 08:00:00,
2013-02-18 03:05:00,17.1,2.9,29.78,NE,42,19.0,25.0,53,0.00,,,0.00,Wunderground v.1.15,2013-02-18 08:05:00,
2013-02-18 03:10:00,17.1,3.3,29.78,NE,42,18.0,24.0,54,0.00,,,0.00,Wunderground v.1.15,2013-02-18 08:10:00,
2013-02-18 03:20:00,17.0,2.4,29.78,ENE,70,20.0,20.0,52,0.00,,,0.00,Wunderground v.1.15,2013-02-18 08:20:00,
2013-02-18 03:30:00,17.0,3.2,29.79,NW,319,19.0,22.0,54,0.00,,,0.00,Wunderground v.1.15,2013-02-18 08:30:00,
2013-02-18 03:35:00,17.0,3.2,29.79,NW,305,19.0,22.0,54,0.00,,,0.00,Wunderground v.1.15,2013-02-18 08:35:00,
2013-02-18 03:45:00,17.0,2.8,29.79,WNW,295,18.0,20.0,53,0.00,,,0.00,Wunderground v.1.15,2013-02-18 08:45:00,
2013-02-18 03:50:00,17.0,2.8,29.80,WNW,286,21.0,21.0,53,0.00,,,0.00,Wunderground v.1.15,2013-02-18 08:50:00,
2013-02-18 03:55:00,17.0,2.8,29.80,NW,314,21.0,21.0,53,0.00,,,0.00,Wunderground v.1.15,2013-02-18 08:55:00,
2013-02-18 04:00:00,17.0,2.8,29.80,WNW,296,20.0,20.0,53,0.00,,,0.00,Wunderground v.1.15,2013-02-18 09:00:00,
2013-02-18 04:05:00,17.0,2.8,29.81,WNW,292,20.0,20.0,53,0.00,,,0.00,Wunderground v.1.15,2013-02-18 09:05:00,
2013-02-18 04:10:00,16.9,2.3,29.82,NW,319,19.0,29.0,52,0.00,,,0.00,Wunderground v.1.15,2013-02-18 09:10:00,
2013-02-18 04:15:00,16.9,2.7,29.82,WNW,286,19.0,29.0,53,0.00,,,0.00,Wunderground v.1.15,2013-02-18 09:15:00,
2013-02-18 04:20:00,16.9,2.7,29.82,WNW,291,18.0,18.0,53,0.00,,,0.00,Wunderground v.1.15,2013-02-18 09:20:00,
2013-02-18 04:30:00,17.0,2.4,29.83,WNW,299,18.0,18.0,52,0.00,,,0.00,Wunderground v.1.15,2013-02-18 09:30:00,
2013-02-18 04:35:00,17.0,2.0,29.83,WNW,287,18.0,20.0,51,0.00,,,0.00,Wunderground v.1.15,2013-02-18 09:35:00,
2013-02-18 04:40:00,17.0,2.0,29.84,West,277,19.0,19.0,51,0.00,,,0.00,Wunderground v.1.15,2013-02-18 09:40:00,
2013-02-18 04:45:00,17.1,2.5,29.84,NW,310,17.0,27.0,52,0.00,,,0.00,Wunderground v.1.15,2013-02-18 09:45:00,
2013-02-18 04:50:00,17.1,2.5,29.84,NNW,329,18.0,19.0,52,0.00,,,0.00,Wunderground v.1.15,2013-02-18 09:50:00,
2013-02-18 04:55:00,17.1,2.1,29.85,WNW,297,20.0,21.0,51,0.00,,,0.00,Wunderground v.1.15,2013-02-18 09:55:00,
2013-02-18 05:05:00,17.0,2.0,29.85,WNW,294,17.0,24.0,51,0.00,,,0.00,Wunderground v.1.15,2013-02-18 10:05:00,
2013-02-18 05:15:00,17.1,2.5,29.86,NW,319,16.0,16.0,52,0.00,,,0.00,Wunderground v.1.15,2013-02-18 10:15:00,
2013-02-18 05:20:00,17.1,2.9,29.86,NNW,328,17.0,17.0,53,0.00,,,0.00,Wunderground v.1.15,2013-02-18 10:20:00,
2013-02-18 05:25:00,17.1,2.1,29.86,NW,305,19.0,19.0,51,0.00,,,0.00,Wunderground v.1.15,2013-02-18 10:25:00,
2013-02-18 05:35:00,17.0,2.0,29.88,WNW,301,14.0,15.0,51,0.00,,,0.00,Wunderground v.1.15,2013-02-18 10:35:00,
2013-02-18 05:40:00,17.0,2.4,29.88,NW,305,16.0,27.0,52,0.00,,,0.00,Wunderground v.1.15,2013-02-18 10:40:00,
2013-02-18 05:50:00,17.0,2.4,29.88,NW,320,16.0,34.0,52,0.00,,,0.00,Wunderground v.1.15,2013-02-18 10:50:00,
2013-02-18 06:00:00,17.0,2.4,29.89,North,357,18.0,18.0,52,0.00,,,0.00,Wunderground v.1.15,2013-02-18 11:00:00,
2013-02-18 06:05:00,17.0,2.4,29.89,NW,308,18.0,27.0,52,0.00,,,0.00,Wunderground v.1.15,2013-02-18 11:05:00,
2013-02-18 06:15:00,17.1,2.9,29.90,NW,320,17.0,24.0,53,0.00,,,0.00,Wunderground v.1.15,2013-02-18 11:15:00,
2013-02-18 06:20:00,17.1,2.9,29.90,NNW,329,18.0,18.0,53,0.00,,,0.00,Wunderground v.1.15,2013-02-18 11:20:00,
2013-02-18 06:25:00,17.2,2.6,29.90,WNW,299,18.0,26.0,52,0.00,,,0.00,Wunderground v.1.15,2013-02-18 11:25:00,
2013-02-18 06:30:00,17.1,2.5,29.90,NW,316,18.0,18.0,52,0.00,,,0.00,Wunderground v.1.15,2013-02-18 11:30:00,
2013-02-18 06:40:00,17.1,2.5,29.92,NW,322,20.0,20.0,52,0.00,,,0.00,Wunderground v.1.15,2013-02-18 11:40:00,
2013-02-18 06:50:00,17.1,2.5,29.92,WNW,295,19.0,19.0,52,0.00,,,0.00,Wunderground v.1.15,2013-02-18 11:50:00,
2013-02-18 06:55:00,17.0,2.0,29.93,NW,316,19.0,19.0,51,0.00,,,0.00,Wunderground v.1.15,2013-02-18 11:55:00,
2013-02-18 07:00:00,17.0,2.4,29.93,NW,314,16.0,17.0,52,0.00,,,0.00,Wunderground v.1.15,2013-02-18 12:00:00,
2013-02-18 07:05:00,17.0,2.4,29.93,NW,322,15.0,17.0,52,0.00,,,0.00,Wunderground v.1.15,2013-02-18 12:05:00,
2013-02-18 07:10:00,17.0,2.8,29.94,West,267,16.0,20.0,53,0.00,,,0.00,Wunderground v.1.15,2013-02-18 12:10:00,
2013-02-18 07:35:00,17.3,2.2,29.96,NW,318,17.0,17.0,51,0.00,,,0.00,Wunderground v.1.15,2013-02-18 12:35:00,
2013-02-18 07:45:00,17.4,2.3,29.96,North,353,15.0,15.0,51,0.00,,,0.00,Wunderground v.1.15,2013-02-18 12:45:00,
2013-02-18 07:50:00,17.6,3.3,29.97,NW,307,16.0,16.0,53,0.00,,,0.00,Wunderground v.1.15,2013-02-18 12:50:00,
2013-02-18 07:55:00,17.7,2.6,29.97,NNW,327,17.0,19.0,51,0.00,,,0.00,Wunderground v.1.15,2013-02-18 12:55:00,
2013-02-18 08:00:00,17.9,3.2,29.97,NW,313,17.0,28.0,52,0.00,,,0.00,Wunderground v.1.15,2013-02-18 13:00:00,
2013-02-18 08:05:00,17.9,2.4,29.97,NW,318,17.0,28.0,50,0.00,,,0.00,Wunderground v.1.15,2013-02-18 13:05:00,
2013-02-18 08:10:00,18.0,2.9,29.97,NW,314,15.0,19.0,51,0.00,,,0.00,Wunderground v.1.15,2013-02-18 13:10:00,
2013-02-18 08:15:00,18.1,3.0,29.98,NW,320,16.0,22.0,51,0.00,,,0.00,Wunderground v.1.15,2013-02-18 13:15:00,
2013-02-18 08:20:00,18.3,2.7,29.98,NW,326,17.0,17.0,50,0.00,,,0.00,Wunderground v.1.15,2013-02-18 13:20:00,
2013-02-18 08:25:00,18.6,3.9,29.97,NNW,329,17.0,17.0,52,0.00,,,0.00,Wunderground v.1.15,2013-02-18 13:25:00,
2013-02-18 08:30:00,18.8,3.2,29.98,NW,317,16.0,23.0,50,0.00,,,0.00,Wunderground v.1.15,2013-02-18 13:30:00,
2013-02-18 08:40:00,19.2,3.6,29.99,NW,305,19.0,19.0,50,0.00,,,0.00,Wunderground v.1.15,2013-02-18 13:40:00,
2013-02-18 08:45:00,19.4,3.3,29.99,NW,315,20.0,23.0,49,0.00,,,0.00,Wunderground v.1.15,2013-02-18 13:45:00,
2013-02-18 08:50:00,19.5,3.0,30.00,NNW,333,20.0,20.0,48,0.00,,,0.00,Wunderground v.1.15,2013-02-18 13:50:00,
2013-02-18 08:55:00,19.8,3.2,30.00,NNW,341,16.0,20.0,48,0.00,,,0.00,Wunderground v.1.15,2013-02-18 13:55:00,
2013-02-18 09:05:00,20.7,4.1,30.01,NW,318,14.0,16.0,48,0.00,,,0.00,Wunderground v.1.15,2013-02-18 14:05:00,
2013-02-18 09:10:00,21.0,4.4,30.00,NNW,330,14.0,14.0,48,0.00,,,0.00,Wunderground v.1.15,2013-02-18 14:10:00,
2013-02-18 09:15:00,21.3,3.7,30.00,NW,322,14.0,14.0,46,0.00,,,0.00,Wunderground v.1.15,2013-02-18 14:15:00,
2013-02-18 09:20:00,21.6,4.0,30.00,NW,323,16.0,16.0,46,0.00,,,0.00,Wunderground v.1.15,2013-02-18 14:20:00,
2013-02-18 09:30:00,22.0,4.3,30.01,NW,306,17.0,23.0,46,0.00,,,0.00,Wunderground v.1.15,2013-02-18 14:30:00,
2013-02-18 09:35:00,22.0,4.3,30.00,WNW,293,17.0,23.0,46,0.00,,,0.00,Wunderground v.1.15,2013-02-18 14:35:00,
2013-02-18 09:40:00,22.2,3.6,30.01,WNW,299,15.0,15.0,44,0.00,,,0.00,Wunderground v.1.15,2013-02-18 14:40:00,
2013-02-18 09:45:00,22.4,4.7,30.00,WNW,301,15.0,16.0,46,0.00,,,0.00,Wunderground v.1.15,2013-02-18 14:45:00,
2013-02-18 09:50:00,22.8,4.1,30.00,NNW,341,15.0,20.0,44,0.00,,,0.00,Wunderground v.1.15,2013-02-18 14:50:00,
2013-02-18 10:00:00,23.5,4.8,30.00,NW,317,16.0,19.0,44,0.00,,,0.00,Wunderground v.1.15,2013-02-18 15:00:00,
2013-02-18 10:05:00,23.4,4.7,30.01,NW,320,17.0,21.0,44,0.00,,,0.00,Wunderground v.1.15,2013-02-18 15:05:00,
2013-02-18 10:10:00,23.6,4.3,30.01,NW,320,18.0,18.0,43,0.00,,,0.00,Wunderground v.1.15,2013-02-18 15:10:00,
2013-02-18 10:15:00,24.2,5.4,30.01,North,359,18.0,18.0,44,0.00,,,0.00,Wunderground v.1.15,2013-02-18 15:15:00,
2013-02-18 10:20:00,24.7,5.8,30.01,NW,318,17.0,17.0,44,0.00,,,0.00,Wunderground v.1.15,2013-02-18 15:20:00,
2013-02-18 10:30:00,25.2,4.8,30.01,WNW,301,17.0,17.0,41,0.00,,,0.00,Wunderground v.1.15,2013-02-18 15:30:00,
2013-02-18 10:35:00,25.3,5.4,30.01,WNW,301,16.0,27.0,42,0.00,,,0.00,Wunderground v.1.15,2013-02-18 15:35:00,
2013-02-18 10:40:00,25.4,5.5,30.02,NW,307,17.0,17.0,42,0.00,,,0.00,Wunderground v.1.15,2013-02-18 15:40:00,
2013-02-18 10:45:00,25.6,4.6,30.02,WNW,299,18.0,26.0,40,0.00,,,0.00,Wunderground v.1.15,2013-02-18 15:45:00,
2013-02-18 10:50:00,25.9,5.4,30.02,NNW,328,19.0,19.0,41,0.00,,,0.00,Wunderground v.1.15,2013-02-18 15:50:00,
2013-02-18 11:00:00,26.5,4.8,30.02,NW,325,16.0,16.0,39,0.00,,,0.00,Wunderground v.1.15,2013-02-18 16:00:00,
2013-02-18 11:15:00,27.1,4.8,30.02,NW,325,16.0,17.0,38,0.00,,,0.00,Wunderground v.1.15,2013-02-18 16:15:00,
2013-02-18 11:25:00,28.3,5.9,30.02,WNW,295,16.0,16.0,38,0.00,,,0.00,Wunderground v.1.15,2013-02-18 16:25:00,
2013-02-18 11:30:00,28.2,5.2,30.02,WNW,298,17.0,17.0,37,0.00,,,0.00,Wunderground v.1.15,2013-02-18 16:30:00,
2013-02-18 11:35:00,28.6,6.7,30.02,NW,304,18.0,18.0,39,0.00,,,0.00,Wunderground v.1.15,2013-02-18 16:35:00,
2013-02-18 11:40:00,28.5,6.1,30.03,NW,307,19.0,21.0,38,0.00,,,0.00,Wunderground v.1.15,2013-02-18 16:40:00,
2013-02-18 11:45:00,29.1,7.7,30.03,NW,311,18.0,21.0,40,0.00,,,0.00,Wunderground v.1.15,2013-02-18 16:45:00,
2013-02-18 11:50:00,29.0,6.5,30.03,WNW,299,17.0,23.0,38,0.00,,,0.00,Wunderground v.1.15,2013-02-18 16:50:00,
2013-02-18 12:00:00,28.7,5.7,30.03,NW,310,19.0,25.0,37,0.00,,,0.00,Wunderground v.1.15,2013-02-18 17:00:00,
2013-02-18 12:05:00,28.6,4.4,30.03,WNW,295,20.0,26.0,35,0.00,,,0.00,Wunderground v.1.15,2013-02-18 17:05:00,
2013-02-18 12:10:00,28.6,5.0,30.03,West,274,19.0,26.0,36,0.00,,,0.00,Wunderground v.1.15,2013-02-18 17:10:00,
2013-02-18 12:15:00,29.0,5.3,30.03,WNW,286,19.0,26.0,36,0.00,,,0.00,Wunderground v.1.15,2013-02-18 17:15:00,
2013-02-18 12:20:00,29.3,5.0,30.03,NW,318,17.0,26.0,35,0.00,,,0.00,Wunderground v.1.15,2013-02-18 17:20:00,
2013-02-18 12:25:00,29.3,4.4,30.04,West,278,18.0,26.0,34,0.00,,,0.00,Wunderground v.1.15,2013-02-18 17:25:00,
2013-02-18 12:35:00,29.9,5.5,30.04,WNW,297,17.0,21.0,35,0.00,,,0.00,Wunderground v.1.15,2013-02-18 17:35:00,
2013-02-18 12:40:00,30.1,5.7,30.04,WNW,289,16.0,16.0,35,0.00,,,0.00,Wunderground v.1.15,2013-02-18 17:40:00,
2013-02-18 12:45:00,29.9,4.2,30.04,NW,317,17.0,17.0,33,0.00,,,0.00,Wunderground v.1.15,2013-02-18 17:45:00,
2013-02-18 12:50:00,29.5,3.2,30.04,NW,322,18.0,18.0,32,0.00,,,0.00,Wunderground v.1.15,2013-02-18 17:50:00,
2013-02-18 12:55:00,29.5,3.9,30.05,NW,313,17.0,18.0,33,0.00,,,0.00,Wunderground v.1.15,2013-02-18 17:55:00,
2013-02-18 13:10:00,29.6,3.3,30.05,WNW,296,19.0,19.0,32,0.00,,,0.00,Wunderground v.1.15,2013-02-18 18:10:00,
2013-02-18 13:20:00,29.4,3.1,30.04,WNW,291,18.0,19.0,32,0.00,,,0.00,Wunderground v.1.15,2013-02-18 18:20:00,
2013-02-18 13:25:00,29.5,2.5,30.04,NW,314,17.0,19.0,31,0.00,,,0.00,Wunderground v.1.15,2013-02-18 18:25:00,
2013-02-18 13:30:00,29.6,3.3,30.04,WNW,291,16.0,16.0,32,0.00,,,0.00,Wunderground v.1.15,2013-02-18 18:30:00,
2013-02-18 13:35:00,29.9,3.6,30.05,West,276,16.0,32.0,32,0.00,,,0.00,Wunderground v.1.15,2013-02-18 18:35:00,
2013-02-18 13:40:00,29.9,3.6,30.05,West,276,16.0,16.0,32,0.00,,,0.00,Wunderground v.1.15,2013-02-18 18:40:00,
2013-02-18 13:50:00,30.3,3.2,30.05,NW,310,17.0,17.0,31,0.00,,,0.00,Wunderground v.1.15,2013-02-18 18:50:00,
2013-02-18 13:55:00,30.3,1.8,30.04,NW,307,17.0,19.0,29,0.00,,,0.00,Wunderground v.1.15,2013-02-18 18:55:00,
2013-02-18 14:00:00,30.5,4.1,30.04,West,264,16.0,16.0,32,0.00,,,0.00,Wunderground v.1.15,2013-02-18 19:00:00,
2013-02-18 14:05:00,30.8,5.0,30.05,WNW,299,15.0,16.0,33,0.00,,,0.00,Wunderground v.1.15,2013-02-18 19:05:00,
2013-02-18 14:10:00,30.9,3.8,30.05,NW,312,15.0,15.0,31,0.00,,,0.00,Wunderground v.1.15,2013-02-18 19:10:00,
2013-02-18 14:15:00,30.6,2.8,30.05,WNW,292,16.0,16.0,30,0.00,,,0.00,Wunderground v.1.15,2013-02-18 19:15:00,
2013-02-18 14:20:00,30.9,5.1,30.05,WNW,283,17.0,17.0,33,0.00,,,0.00,Wunderground v.1.15,2013-02-18 19:20:00,
2013-02-18 14:25:00,30.6,4.2,30.05,NW,305,16.0,17.0,32,0.00,,,0.00,Wunderground v.1.15,2013-02-18 19:25:00,
2013-02-18 14:35:00,30.7,4.3,30.06,West,272,14.0,23.0,32,0.00,,,0.00,Wunderground v.1.15,2013-02-18 19:35:00,
2013-02-18 14:40:00,30.5,4.1,30.06,WNW,289,14.0,14.0,32,0.00,,,0.00,Wunderground v.1.15,2013-02-18 19:40:00,
2013-02-18 14:45:00,30.6,2.8,30.05,WNW,282,15.0,17.0,30,0.00,,,0.00,Wunderground v.1.15,2013-02-18 19:45:00,
2013-02-18 14:50:00,30.6,2.8,30.06,NW,307,16.0,16.0,30,0.00,,,0.00,Wunderground v.1.15,2013-02-18 19:50:00,
2013-02-18 14:55:00,30.9,3.8,30.06,NW,308,14.0,14.0,31,0.00,,,0.00,Wunderground v.1.15,2013-02-18 19:55:00,
2013-02-18 15:00:00,30.9,3.0,30.06,WNW,293,12.0,12.0,30,0.00,,,0.00,Wunderground v.1.15,2013-02-18 20:00:00,
2013-02-18 15:05:00,30.9,3.0,30.06,NW,314,14.0,14.0,30,0.00,,,0.00,Wunderground v.1.15,2013-02-18 20:05:00,
2013-02-18 15:10:00,31.0,2.4,30.06,WNW,293,16.0,16.0,29,0.00,,,0.00,Wunderground v.1.15,2013-02-18 20:10:00,
2013-02-18 15:20:00,31.0,2.4,30.06,WNW,293,16.0,20.0,29,0.00,,,0.00,Wunderground v.1.15,2013-02-18 20:20:00,
2013-02-18 15:25:00,31.1,2.5,30.06,NW,315,17.0,21.0,29,0.00,,,0.00,Wunderground v.1.15,2013-02-18 20:25:00,
2013-02-18 15:35:00,31.1,1.7,30.06,WNW,303,15.0,24.0,28,0.00,,,0.00,Wunderground v.1.15,2013-02-18 20:35:00,
2013-02-18 15:40:00,31.0,2.4,30.06,WNW,291,15.0,15.0,29,0.00,,,0.00,Wunderground v.1.15,2013-02-18 20:40:00,
2013-02-18 15:45:00,31.0,2.4,30.06,NW,323,14.0,18.0,29,0.00,,,0.00,Wunderground v.1.15,2013-02-18 20:45:00,
2013-02-18 15:55:00,31.1,3.2,30.06,WNW,299,14.0,14.0,30,0.00,,,0.00,Wunderground v.1.15,2013-02-18 20:55:00,
2013-02-18 16:00:00,31.1,2.5,30.06,NW,305,14.0,14.0,29,0.00,,,0.00,Wunderground v.1.15,2013-02-18 21:00:00,
2013-02-18 16:10:00,30.8,2.2,30.06,NW,326,14.0,19.0,29,0.00,,,0.00,Wunderground v.1.15,2013-02-18 21:10:00,
2013-02-18 16:15:00,30.7,2.9,30.06,WNW,303,15.0,19.0,30,0.00,,,0.00,Wunderground v.1.15,2013-02-18 21:15:00,
2013-02-18 16:20:00,30.8,2.2,30.07,NW,320,14.0,14.0,29,0.00,,,0.00,Wunderground v.1.15,2013-02-18 21:20:00,
2013-02-18 16:25:00,30.8,2.2,30.07,NW,305,14.0,14.0,29,0.00,,,0.00,Wunderground v.1.15,2013-02-18 21:25:00,
2013-02-18 16:30:00,30.8,1.5,30.07,WNW,292,14.0,14.0,28,0.00,,,0.00,Wunderground v.1.15,2013-02-18 21:30:00,
2013-02-18 16:40:00,30.7,2.1,30.08,West,270,15.0,18.0,29,0.00,,,0.00,Wunderground v.1.15,2013-02-18 21:40:00,
2013-02-18 16:45:00,30.7,2.1,30.09,NW,311,15.0,18.0,29,0.00,,,0.00,Wunderground v.1.15,2013-02-18 21:45:00,
2013-02-18 16:50:00,30.6,2.8,30.09,NW,322,13.0,13.0,30,0.00,,,0.00,Wunderground v.1.15,2013-02-18 21:50:00,
2013-02-18 17:00:00,30.4,2.6,30.09,NW,305,13.0,13.0,30,0.00,,,0.00,Wunderground v.1.15,2013-02-18 22:00:00,
2013-02-18 17:05:00,30.3,1.8,30.10,NW,305,12.0,13.0,29,0.00,,,0.00,Wunderground v.1.15,2013-02-18 22:05:00,
2013-02-18 17:10:00,30.2,2.4,30.10,NW,320,12.0,12.0,30,0.00,,,0.00,Wunderground v.1.15,2013-02-18 22:10:00,
2013-02-18 17:20:00,29.9,3.6,30.10,NNW,337,10.0,10.0,32,0.00,,,0.00,Wunderground v.1.15,2013-02-18 22:20:00,
2013-02-18 17:25:00,29.9,1.4,30.10,NW,307,11.0,13.0,29,0.00,,,0.00,Wunderground v.1.15,2013-02-18 22:25:00,
2013-02-18 17:30:00,29.8,2.8,30.11,WNW,299,12.0,12.0,31,0.00,,,0.00,Wunderground v.1.15,2013-02-18 22:30:00,
2013-02-18 17:35:00,29.6,2.6,30.10,WNW,300,12.0,12.0,31,0.00,,,0.00,Wunderground v.1.15,2013-02-18 22:35:00,
2013-02-18 17:40:00,29.6,2.6,30.10,WNW,301,11.0,11.0,31,0.00,,,0.00,Wunderground v.1.15,2013-02-18 22:40:00,
2013-02-18 17:50:00,29.4,2.4,30.11,WNW,291,10.0,10.0,31,0.00,,,0.00,Wunderground v.1.15,2013-02-18 22:50:00,
2013-02-18 17:55:00,29.3,3.7,30.11,NW,305,11.0,11.0,33,0.00,,,0.00,Wunderground v.1.15,2013-02-18 22:55:00,
2013-02-18 18:00:00,29.3,2.4,30.11,WNW,299,12.0,12.0,31,0.00,,,0.00,Wunderground v.1.15,2013-02-18 23:00:00,
2013-02-18 18:05:00,29.3,3.0,30.11,NW,318,11.0,17.0,32,0.00,,,0.00,Wunderground v.1.15,2013-02-18 23:05:00,
2013-02-18 18:10:00,29.2,2.9,30.12,West,274,10.0,10.0,32,0.00,,,0.00,Wunderground v.1.15,2013-02-18 23:10:00,
2013-02-18 18:20:00,29.2,3.6,30.12,WNW,295,9.0,9.0,33,0.00,,,0.00,Wunderground v.1.15,2013-02-18 23:20:00,
2013-02-18 18:30:00,28.9,4.0,30.13,WNW,299,10.0,10.0,34,0.00,,,0.00,Wunderground v.1.15,2013-02-18 23:30:00,
2013-02-18 18:35:00,28.9,3.4,30.13,West,274,10.0,11.0,33,0.00,,,0.00,Wunderground v.1.15,2013-02-18 23:35:00,
2013-02-18 18:40:00,29.0,4.1,30.13,WNW,303,10.0,14.0,34,0.00,,,0.00,Wunderground v.1.15,2013-02-18 23:40:00,
2013-02-18 18:45:00,28.9,3.4,30.13,NW,307,10.0,14.0,33,0.00,,,0.00,Wunderground v.1.15,2013-02-18 23:45:00,
2013-02-18 18:55:00,28.9,4.0,30.13,WNW,293,7.0,8.0,34,0.00,,,0.00,Wunderground v.1.15,2013-02-18 23:55:00,
2013-02-18 19:00:00,28.8,3.9,30.13,West,278,7.0,7.0,34,0.00,,,0.00,Wunderground v.1.15,2013-02-19 00:00:00,
2013-02-18 19:05:00,28.6,5.0,30.13,WNW,301,7.0,8.0,36,0.00,,,0.00,Wunderground v.1.15,2013-02-19 00:05:00,
2013-02-18 19:10:00,28.6,3.1,30.13,WNW,303,7.0,7.0,33,0.00,,,0.00,Wunderground v.1.15,2013-02-19 00:10:00,
2013-02-18 19:15:00,28.6,3.7,30.14,WNW,283,7.0,12.0,34,0.00,,,0.00,Wunderground v.1.15,2013-02-19 00:15:00,
2013-02-18 19:20:00,28.5,3.6,30.14,WNW,297,7.0,7.0,34,0.00,,,0.00,Wunderground v.1.15,2013-02-19 00:20:00,
2013-02-18 19:30:00,28.3,4.1,30.14,WNW,302,7.0,8.0,35,0.00,,,0.00,Wunderground v.1.15,2013-02-19 00:30:00,
2013-02-18 19:40:00,28.1,4.5,30.15,West,273,7.0,10.0,36,0.00,,,0.00,Wunderground v.1.15,2013-02-19 00:40:00,
2013-02-18 19:45:00,28.0,4.4,30.15,WNW,296,7.0,10.0,36,0.00,,,0.00,Wunderground v.1.15,2013-02-19 00:45:00,
2013-02-18 19:50:00,28.0,4.4,30.15,West,269,6.0,7.0,36,0.00,,,0.00,Wunderground v.1.15,2013-02-19 00:50:00,
2013-02-18 19:55:00,28.0,4.4,30.15,West,262,7.0,7.0,36,0.00,,,0.00,Wunderground v.1.15,2013-02-19 00:55:00,
2013-02-18 20:05:00,28.0,5.0,30.15,WNW,295,6.0,9.0,37,0.00,,,0.00,Wunderground v.1.15,2013-02-19 01:05:00,
2013-02-18 20:10:00,28.1,3.9,30.16,West,268,7.0,8.0,35,0.00,,,0.00,Wunderground v.1.15,2013-02-19 01:10:00,
2013-02-18 20:15:00,28.2,4.6,30.15,WNW,291,9.0,9.0,36,0.00,,,0.00,Wunderground v.1.15,2013-02-19 01:15:00,
2013-02-18 20:25:00,28.0,4.4,30.16,NW,307,7.0,9.0,36,0.00,,,0.00,Wunderground v.1.15,2013-02-19 01:25:00,
2013-02-18 20:35:00,27.9,3.7,30.16,WNW,293,7.0,8.0,35,0.00,,,0.00,Wunderground v.1.15,2013-02-19 01:35:00,
2013-02-18 20:40:00,27.9,4.4,30.16,WNW,287,7.0,7.0,36,0.00,,,0.00,Wunderground v.1.15,2013-02-19 01:40:00,
2013-02-18 20:50:00,27.6,4.7,30.17,NW,308,8.0,9.0,37,0.00,,,0.00,Wunderground v.1.15,2013-02-19 01:50:00,
2013-02-18 20:55:00,27.6,5.3,30.17,WNW,285,7.0,9.0,38,0.00,,,0.00,Wunderground v.1.15,2013-02-19 01:55:00,
2013-02-18 21:00:00,27.4,5.7,30.17,NW,306,6.0,7.0,39,0.00,,,0.00,Wunderground v.1.15,2013-02-19 02:00:00,
2013-02-18 21:05:00,27.4,5.1,30.17,WNW,294,6.0,7.0,38,0.00,,,0.00,Wunderground v.1.15,2013-02-19 02:05:00,
2013-02-18 21:15:00,27.3,4.4,30.17,WNW,285,6.0,6.0,37,0.00,,,0.00,Wunderground v.1.15,2013-02-19 02:15:00,
2013-02-18 21:25:00,27.2,4.9,30.17,West,270,5.0,5.0,38,0.00,,,0.00,Wunderground v.1.15,2013-02-19 02:25:00,
2013-02-18 21:35:00,26.6,4.9,30.16,NW,305,5.0,5.0,39,0.00,,,0.00,Wunderground v.1.15,2013-02-19 02:35:00,
2013-02-18 21:40:00,26.7,5.0,30.16,NW,312,5.0,5.0,39,0.00,,,0.00,Wunderground v.1.15,2013-02-19 02:40:00,